createdAt,value
2018-12-17T00:04:00.664Z,59.07
2018-12-17T00:09:10.184Z,57.62
2018-12-17T00:14:19.644Z,58.26
2018-12-17T00:19:29.149Z,55.41
2018-12-17T00:24:38.459Z,55.73
2018-12-17T00:29:47.964Z,57.70
2018-12-17T00:34:57.477Z,56.24
2018-12-17T00:40:07.301Z,56.95
2018-12-17T00:45:16.796Z,58.16
2018-12-17T00:50:26.381Z,56.63
2018-12-17T00:55:34.251Z,56.43
2018-12-17T01:00:43.778Z,53.34
2018-12-17T01:05:53.174Z,54.94
2018-12-17T01:11:02.882Z,57.67
2018-12-17T01:16:12.183Z,51.89
2018-12-17T01:21:21.872Z,56.67
2018-12-17T01:26:31.153Z,52.33
2018-12-17T01:31:40.892Z,52.87
2018-12-17T01:36:50.154Z,52.66
2018-12-17T01:41:59.826Z,55.78
2018-12-17T01:47:09.171Z,52.25
2018-12-17T01:52:19.007Z,51.20
2018-12-17T01:57:28.342Z,50.42
2018-12-17T02:02:38.045Z,50.77
2018-12-17T02:07:47.428Z,53.31
2018-12-17T02:12:57.359Z,51.58
2018-12-17T02:18:06.711Z,51.23
2018-12-17T02:23:16.456Z,49.84
2018-12-17T02:28:25.757Z,50.40
2018-12-17T02:33:35.377Z,47.30
2018-12-17T02:38:44.744Z,51.12
2018-12-17T02:43:54.233Z,49.72
2018-12-17T02:49:03.701Z,48.61
2018-12-17T02:54:13.413Z,48.66
2018-12-17T02:59:22.805Z,47.86
2018-12-17T03:04:32.465Z,47.60
2018-12-17T03:09:40.318Z,47.32
2018-12-17T03:14:48.423Z,49.48
2018-12-17T03:19:57.665Z,48.16
2018-12-17T03:25:07.326Z,48.30
2018-12-17T03:30:16.762Z,48.04
2018-12-17T03:35:26.176Z,45.85
2018-12-17T03:40:35.467Z,46.94
2018-12-17T03:45:45.292Z,46.54
2018-12-17T03:50:54.750Z,45.97
2018-12-17T03:56:04.380Z,46.33
2018-12-17T04:01:13.657Z,44.93
2018-12-17T04:06:23.191Z,42.65
2018-12-17T04:11:32.570Z,45.09
2018-12-17T04:16:42.128Z,45.46
2018-12-17T04:21:52.987Z,45.01
2018-12-17T04:27:00.649Z,42.85
2018-12-17T04:32:08.693Z,44.35
2018-12-17T04:37:18.270Z,43.36
2018-12-17T04:42:26.140Z,42.04
2018-12-17T04:47:35.803Z,39.57
2018-12-17T04:52:43.696Z,39.37
2018-12-17T04:57:53.301Z,39.89
2018-12-17T05:03:02.815Z,36.56
2018-12-17T05:08:12.310Z,38.93
2018-12-17T05:13:21.634Z,37.23
2018-12-17T05:18:31.205Z,35.88
2018-12-17T05:23:39.286Z,37.44
2018-12-17T05:28:49.141Z,35.40
2018-12-17T05:33:58.442Z,35.32
2018-12-17T05:39:07.936Z,35.38
2018-12-17T05:44:17.396Z,46.05
2018-12-17T05:49:26.889Z,38.36
2018-12-17T05:54:34.764Z,44.37
2018-12-17T05:59:44.616Z,41.74
2018-12-17T06:04:54.044Z,39.19
2018-12-17T06:10:03.682Z,37.32
2018-12-17T06:15:12.984Z,43.69
2018-12-17T06:20:22.486Z,45.50
2018-12-17T06:25:31.798Z,39.41
2018-12-17T06:30:41.389Z,40.27
2018-12-17T06:35:50.909Z,39.82
2018-12-17T06:41:00.500Z,39.91
2018-12-17T06:46:09.916Z,36.64
2018-12-17T06:51:17.939Z,38.68
2018-12-17T06:56:25.833Z,39.39
2018-12-17T07:01:33.894Z,39.80
2018-12-17T07:06:43.236Z,37.81
2018-12-17T07:11:52.993Z,34.60
2018-12-17T07:17:02.350Z,37.76
2018-12-17T07:22:11.817Z,33.39
2018-12-17T07:27:21.173Z,31.24
2018-12-17T07:32:31.154Z,33.96
2018-12-17T07:37:40.428Z,32.05
2018-12-17T07:42:50.140Z,33.01
2018-12-17T07:47:59.467Z,31.16
2018-12-17T07:53:09.154Z,33.59
2018-12-17T07:58:18.546Z,31.54
2018-12-17T08:03:28.217Z,31.78
2018-12-17T08:08:37.552Z,30.72
2018-12-17T08:13:47.239Z,34.86
2018-12-17T08:18:56.688Z,28.82
2018-12-17T08:24:04.780Z,27.42
2018-12-17T08:29:12.619Z,27.96
2018-12-17T08:34:22.217Z,26.38
2018-12-17T08:39:31.652Z,28.43
2018-12-17T08:44:41.224Z,25.53
2018-12-17T08:49:50.557Z,26.28
2018-12-17T08:55:00.288Z,25.76
2018-12-17T09:00:11.157Z,25.99
2018-12-17T09:05:18.953Z,28.49
2018-12-17T09:10:26.870Z,24.05
2018-12-17T09:15:36.366Z,24.24
2018-12-17T09:20:45.689Z,22.86
2018-12-17T09:25:55.349Z,28.38
2018-12-17T09:31:04.796Z,28.36
2018-12-17T09:36:14.220Z,24.20
2018-12-17T09:41:23.638Z,24.55
2018-12-17T09:46:33.304Z,25.94
2018-12-17T09:51:42.626Z,25.19
2018-12-17T09:56:52.131Z,26.31
2018-12-17T10:02:00.107Z,25.18
2018-12-17T10:07:09.714Z,23.78
2018-12-17T10:12:19.088Z,23.22
2018-12-17T10:17:28.729Z,22.76
2018-12-17T10:22:38.061Z,27.20
2018-12-17T10:27:47.650Z,26.73
2018-12-17T10:32:57.162Z,29.76
2018-12-17T10:38:06.881Z,23.85
2018-12-17T10:43:16.088Z,23.56
2018-12-17T10:48:25.701Z,24.17
2018-12-17T10:53:35.206Z,22.21
2018-12-17T10:58:44.613Z,24.33
2018-12-17T11:03:54.020Z,22.01
2018-12-17T11:09:03.840Z,25.40
2018-12-17T11:14:13.249Z,21.05
2018-12-17T11:19:22.716Z,22.86
2018-12-17T11:24:32.208Z,21.30
2018-12-17T11:29:41.881Z,23.95
2018-12-17T11:34:51.198Z,22.64
2018-12-17T11:40:00.871Z,21.92
2018-12-17T11:45:10.385Z,20.47
2018-12-17T11:50:19.845Z,19.38
2018-12-17T11:55:29.125Z,19.67
2018-12-17T12:00:38.875Z,19.99
2018-12-17T12:05:48.249Z,21.59
2018-12-17T12:10:57.880Z,20.38
2018-12-17T12:16:07.145Z,20.18
2018-12-17T12:21:16.809Z,19.18
2018-12-17T12:26:26.265Z,19.33
2018-12-17T12:31:36.044Z,20.72
2018-12-17T12:36:45.377Z,19.60
2018-12-17T12:41:54.968Z,19.94
2018-12-17T12:47:04.298Z,19.17
2018-12-17T12:52:13.921Z,24.39
2018-12-17T12:57:23.357Z,19.41
2018-12-17T13:02:32.918Z,20.13
2018-12-17T16:56:04.242Z,37.60
2018-12-17T17:01:03.332Z,35.65
2018-12-17T17:06:12.756Z,29.85
2018-12-17T17:11:22.016Z,35.96
2018-12-17T17:14:53.400Z,121.18
2018-12-17T17:19:52.609Z,208.46
2018-12-17T17:25:02.062Z,313.09
2018-12-17T17:30:11.481Z,300.54
2018-12-17T17:35:20.854Z,320.58
2018-12-17T17:40:30.286Z,251.04
2018-12-17T17:45:39.608Z,269.29
2018-12-17T17:50:49.087Z,279.19
2018-12-17T17:55:58.430Z,245.81
2018-12-17T18:01:07.931Z,286.32
2018-12-17T18:06:17.228Z,253.92
2018-12-17T18:11:26.651Z,237.00
2018-12-17T18:16:35.887Z,235.39
2018-12-17T18:21:45.385Z,230.44
2018-12-17T18:26:54.731Z,225.02
2018-12-17T18:32:09.194Z,211.13
2018-12-17T18:37:08.405Z,231.16
2018-12-17T18:41:46.122Z,206.36
2018-12-17T18:44:41.165Z,119.95
2018-12-17T18:47:50.318Z,99.79
2018-12-17T18:52:49.605Z,87.40
2018-12-17T18:57:59.712Z,77.74
2018-12-17T19:02:59.018Z,69.74
2018-12-17T19:08:06.861Z,66.61
2018-12-17T19:13:16.393Z,62.74
2018-12-17T19:18:26.671Z,65.99
2018-12-17T19:23:26.145Z,72.24
2018-12-17T19:28:35.493Z,62.89
2018-12-17T19:33:44.904Z,61.41
2018-12-17T19:38:50.993Z,62.35
2018-12-17T19:43:59.142Z,62.15
2018-12-17T19:49:08.501Z,55.83
2018-12-17T19:54:18.098Z,52.85
2018-12-17T19:59:27.359Z,51.56
2018-12-17T20:04:36.797Z,53.63
2018-12-17T20:09:46.052Z,50.80
2018-12-17T20:14:55.551Z,51.55
2018-12-17T20:20:04.957Z,46.63
2018-12-17T20:25:14.896Z,51.47
2018-12-17T20:30:24.170Z,50.54
2018-12-17T20:35:33.858Z,48.41
2018-12-17T20:40:43.107Z,47.58
2018-12-17T20:45:52.648Z,50.82
2018-12-17T20:51:02.010Z,45.08
2018-12-17T20:56:11.527Z,46.57
2018-12-17T21:01:20.774Z,47.19
2018-12-17T21:06:30.261Z,43.77
2018-12-17T21:11:39.649Z,43.46
2018-12-17T21:16:49.368Z,44.64
2018-12-17T21:21:58.729Z,47.61
2018-12-17T21:27:08.136Z,64.71
2018-12-17T21:32:17.410Z,68.04
2018-12-17T21:37:25.570Z,64.78
2018-12-17T21:42:34.861Z,58.02
2018-12-17T21:47:44.528Z,55.30
2018-12-17T21:52:53.938Z,37.97
2018-12-17T21:58:03.474Z,36.58
2018-12-17T22:03:13.428Z,34.19
2018-12-17T22:08:21.853Z,35.50
2018-12-17T22:13:31.260Z,35.98
2018-12-17T22:18:40.870Z,39.45
2018-12-17T22:23:50.097Z,38.69
2018-12-17T22:28:59.686Z,42.57
2018-12-17T22:34:08.909Z,43.18
2018-12-17T22:39:17.206Z,43.03
2018-12-17T22:44:26.368Z,41.60
2018-12-17T22:49:35.821Z,39.85
2018-12-17T22:54:45.190Z,40.02
2018-12-17T22:59:53.121Z,39.37
2018-12-17T23:05:02.421Z,38.03
2018-12-17T23:10:12.037Z,40.82
2018-12-17T23:15:21.490Z,35.22
2018-12-17T23:20:31.071Z,36.03
2018-12-17T23:25:40.503Z,35.28
2018-12-17T23:30:50.037Z,38.62
2018-12-17T23:35:59.458Z,36.02
2018-12-17T23:41:09.123Z,36.27
2018-12-17T23:46:16.958Z,35.11
2018-12-17T23:51:26.509Z,36.92
2018-12-17T23:56:35.816Z,36.60
